Observation data for Denver City on 06/15/2019      Previous  Date  Next       Current Mesonet Observations  Soil Data  Daily Summary Page  Observations in Plain Language
KDVS 150500Z 18014G19KT 25/11 A2988 RMK A01 T02470112  RH  044%=      5-min Rain = 0
KDVS 150505Z 18014KT 25/12 A2988 RMK A01 T02450115  RH  046%=      5-min Rain = 0
KDVS 150510Z 19014G19KT 24/12 A2988 RMK A01 T02430118  RH  047%=      5-min Rain = 0
KDVS 150515Z 19013G18KT 24/12 A2989 RMK A01 T02420120  RH  048%=      5-min Rain = 0
KDVS 150520Z 18013G19KT 24/12 A2989 RMK A01 T02410121  RH  049%=      5-min Rain = 0
KDVS 150525Z 19011KT 24/12 A2989 RMK A01 T02380121  RH  050%=      5-min Rain = 0
KDVS 150530Z 19010KT 24/12 A2989 RMK A01 T02350122  RH  051%=      5-min Rain = 0
KDVS 150535Z 18009KT 23/12 A2989 RMK A01 T02320122  RH  052%=      5-min Rain = 0
KDVS 150540Z 18010KT 23/12 A2989 RMK A01 T02280123  RH  053%=      5-min Rain = 0
KDVS 150545Z 18010KT 23/12 A2989 RMK A01 T02280124  RH  054%=      5-min Rain = 0
KDVS 150550Z 19010KT 23/13 A2989 RMK A01 T02270125  RH  055%=      5-min Rain = 0
KDVS 150555Z 19010KT 23/13 A2989 RMK A01 T02270126  RH  055%=      5-min Rain = 0
KDVS 150600Z 20010KT 23/13 A2989 RMK A01 T02270127  RH  055%=      5-min Rain = 0
KDVS 150605Z 20010KT 23/13 A2989 RMK A01 T02260128  RH  056%=      5-min Rain = 0
KDVS 150610Z 20009KT 23/13 A2989 RMK A01 T02250129  RH  057%=      5-min Rain = 0
KDVS 150615Z 20010KT 23/13 A2989 RMK A01 T02260130  RH  057%=      5-min Rain = 0
KDVS 150620Z 19012G17KT 23/13 A2989 RMK A01 T02290130  RH  056%=      5-min Rain = 0
KDVS 150625Z 19015G21KT 23/13 A2988 RMK A01 T02310130  RH  055%=      5-min Rain = 0
KDVS 150630Z 19013KT 23/13 A2988 RMK A01 T02300130  RH  055%=      5-min Rain = 0
KDVS 150635Z 19013KT 23/13 A2988 RMK A01 T02300129  RH  055%=      5-min Rain = 0
KDVS 150640Z 19013KT 23/13 A2988 RMK A01 T02300128  RH  055%=      5-min Rain = 0
KDVS 150645Z 18013KT 23/13 A2988 RMK A01 T02290127  RH  055%=      5-min Rain = 0
KDVS 150650Z 19013KT 23/13 A2988 RMK A01 T02280126  RH  054%=      5-min Rain = 0
KDVS 150655Z 19012G17KT 23/13 A2988 RMK A01 T02280125  RH  054%=      5-min Rain = 0
KDVS 150700Z 19011KT 23/13 A2988 RMK A01 T02270125  RH  055%=      5-min Rain = 0
KDVS 150705Z 19012KT 23/13 A2988 RMK A01 T02260125  RH  055%=      5-min Rain = 0
KDVS 150710Z 19013KT 23/13 A2988 RMK A01 T02260125  RH  055%=      5-min Rain = 0
KDVS 150715Z 19013G18KT 23/13 A2988 RMK A01 T02270125  RH  055%=      5-min Rain = 0
KDVS 150720Z 20013KT 23/13 A2987 RMK A01 T02270125  RH  055%=      5-min Rain = 0
KDVS 150725Z 19013KT 23/13 A2987 RMK A01 T02270125  RH  055%=      5-min Rain = 0
KDVS 150730Z 20013KT 23/13 A2987 RMK A01 T02260125  RH  055%=      5-min Rain = 0
KDVS 150735Z 21012KT 23/13 A2987 RMK A01 T02250125  RH  055%=      5-min Rain = 0
KDVS 150740Z 21011KT 22/13 A2987 RMK A01 T02240125  RH  056%=      5-min Rain = 0
KDVS 150745Z 21011KT 22/12 A2987 RMK A01 T02240124  RH  055%=      5-min Rain = 0
KDVS 150750Z 21013G18KT 23/12 A2987 RMK A01 T02250123  RH  055%=      5-min Rain = 0
KDVS 150755Z 21013KT 23/12 A2987 RMK A01 T02260122  RH  054%=      5-min Rain = 0
KDVS 150800Z 21013KT 23/12 A2986 RMK A01 T02250121  RH  054%=      5-min Rain = 0
KDVS 150805Z 21013KT 23/12 A2986 RMK A01 T02250120  RH  053%=      5-min Rain = 0
KDVS 150810Z 21012KT 22/12 A2986 RMK A01 T02240119  RH  053%=      5-min Rain = 0
KDVS 150815Z 21015KT 22/12 A2986 RMK A01 T02240117  RH  053%=      5-min Rain = 0
KDVS 150820Z 20014KT 23/12 A2986 RMK A01 T02250117  RH  052%=      5-min Rain = 0
KDVS 150825Z 20014KT 22/12 A2986 RMK A01 T02240118  RH  053%=      5-min Rain = 0
KDVS 150830Z 19015G20KT 22/12 A2986 RMK A01 T02220118  RH  054%=      5-min Rain = 0
KDVS 150835Z 19014KT 22/12 A2986 RMK A01 T02220119  RH  054%=      5-min Rain = 0
KDVS 150840Z 19014G19KT 22/12 A2986 RMK A01 T02220119  RH  054%=      5-min Rain = 0
KDVS 150845Z 20013KT 22/12 A2986 RMK A01 T02200119  RH  055%=      5-min Rain = 0
KDVS 150850Z 20013KT 22/12 A2986 RMK A01 T02180119  RH  055%=      5-min Rain = 0
KDVS 150855Z 20012KT 22/12 A2986 RMK A01 T02170120  RH  056%=      5-min Rain = 0
KDVS 150900Z 21013KT 22/12 A2986 RMK A01 T02160120  RH  056%=      5-min Rain = 0
KDVS 150905Z 20013KT 22/12 A2986 RMK A01 T02160119  RH  056%=      5-min Rain = 0
KDVS 150910Z 21014KT 22/12 A2986 RMK A01 T02170119  RH  056%=      5-min Rain = 0
KDVS 150915Z 21014KT 22/12 A2986 RMK A01 T02160118  RH  056%=      5-min Rain = 0
KDVS 150920Z 21014KT 22/12 A2986 RMK A01 T02160118  RH  055%=      5-min Rain = 0
KDVS 150925Z 21014KT 22/12 A2986 RMK A01 T02160117  RH  055%=      5-min Rain = 0
KDVS 150930Z 21013KT 22/12 A2986 RMK A01 T02160117  RH  055%=      5-min Rain = 0
KDVS 150935Z 21013G19KT 21/12 A2986 RMK A01 T02140116  RH  055%=      5-min Rain = 0
KDVS 150940Z 21013G18KT 21/12 A2986 RMK A01 T02140115  RH  055%=      5-min Rain = 0
KDVS 150945Z 21013KT 21/12 A2986 RMK A01 T02140115  RH  055%=      5-min Rain = 0
KDVS 150950Z 21013KT 21/12 A2986 RMK A01 T02140115  RH  055%=      5-min Rain = 0
KDVS 150955Z 21012KT 21/11 A2986 RMK A01 T02120114  RH  056%=      5-min Rain = 0
KDVS 151000Z 21012KT 21/11 A2986 RMK A01 T02110114  RH  056%=      5-min Rain = 0
KDVS 151005Z 21012KT 21/12 A2986 RMK A01 T02090115  RH  057%=      5-min Rain = 0
KDVS 151010Z 21011KT 21/11 A2986 RMK A01 T02080114  RH  057%=      5-min Rain = 0
KDVS 151015Z 21011KT 21/11 A2986 RMK A01 T02080114  RH  057%=      5-min Rain = 0
KDVS 151020Z 20012KT 21/12 A2986 RMK A01 T02060115  RH  058%=      5-min Rain = 0
KDVS 151025Z 21010KT 20/12 A2986 RMK A01 T02040115  RH  059%=      5-min Rain = 0
KDVS 151030Z 21010KT 20/12 A2986 RMK A01 T02020116  RH  060%=      5-min Rain = 0
KDVS 151035Z 21012KT 20/12 A2986 RMK A01 T02010117  RH  060%=      5-min Rain = 0
KDVS 151040Z 21011KT 20/12 A2987 RMK A01 T02020117  RH  060%=      5-min Rain = 0
KDVS 151045Z 21010KT 20/12 A2987 RMK A01 T02000118  RH  061%=      5-min Rain = 0
KDVS 151050Z 21010KT 20/12 A2987 RMK A01 T01970118  RH  063%=      5-min Rain = 0
KDVS 151055Z 22008KT 20/12 A2987 RMK A01 T01950119  RH  063%=      5-min Rain = 0
KDVS 151100Z 22008KT 19/12 A2987 RMK A01 T01940120  RH  065%=      5-min Rain = 0
KDVS 151105Z 23008KT 19/12 A2987 RMK A01 T01930120  RH  065%=      5-min Rain = 0
KDVS 151110Z 22009KT 19/12 A2987 RMK A01 T01920121  RH  066%=      5-min Rain = 0
KDVS 151115Z 22008KT 19/12 A2987 RMK A01 T01900121  RH  067%=      5-min Rain = 0
KDVS 151120Z 23007KT 19/12 A2987 RMK A01 T01880121  RH  067%=      5-min Rain = 0
KDVS 151125Z 23007KT 19/12 A2987 RMK A01 T01850120  RH  068%=      5-min Rain = 0
KDVS 151130Z 24007KT 18/12 A2987 RMK A01 T01830120  RH  069%=      5-min Rain = 0
KDVS 151135Z 23006KT 18/12 A2987 RMK A01 T01820121  RH  070%=      5-min Rain = 0
KDVS 151140Z 24006KT 18/12 A2987 RMK A01 T01820122  RH  071%=      5-min Rain = 0
KDVS 151145Z 24006KT 18/12 A2988 RMK A01 T01810123  RH  072%=      5-min Rain = 0
KDVS 151150Z 24006KT 18/12 A2988 RMK A01 T01810124  RH  072%=      5-min Rain = 0
KDVS 151155Z 24007KT 18/13 A2988 RMK A01 T01810125  RH  073%=      5-min Rain = 0
KDVS 151200Z 23007KT 18/13 A2988 RMK A01 T01810125  RH  073%=      5-min Rain = 0
KDVS 151205Z 24007KT 18/12 A2988 RMK A01 T01790124  RH  073%=      5-min Rain = 0
KDVS 151210Z 24007KT 18/12 A2988 RMK A01 T01790124  RH  073%=      5-min Rain = 0
KDVS 151215Z 23008KT 18/12 A2988 RMK A01 T01780123  RH  073%=      5-min Rain = 0
KDVS 151220Z 24009KT 18/12 A2988 RMK A01 T01790124  RH  073%=      5-min Rain = 0
KDVS 151225Z 24009KT 18/12 A2988 RMK A01 T01780123  RH  073%=      5-min Rain = 0
KDVS 151230Z 23009KT 18/12 A2988 RMK A01 T01780122  RH  073%=      5-min Rain = 0
KDVS 151235Z 24008KT 18/12 A2988 RMK A01 T01790121  RH  072%=      5-min Rain = 0
KDVS 151240Z 25008KT 18/12 A2988 RMK A01 T01810121  RH  071%=      5-min Rain = 0
KDVS 151245Z 24010KT 18/12 A2987 RMK A01 T01830123  RH  070%=      5-min Rain = 0
KDVS 151250Z 24010KT 19/12 A2988 RMK A01 T01850124  RH  070%=      5-min Rain = 0
KDVS 151255Z 23009KT 19/12 A2988 RMK A01 T01870124  RH  069%=      5-min Rain = 0
KDVS 151300Z 23009KT 19/13 A2988 RMK A01 T01900125  RH  068%=      5-min Rain = 0
KDVS 151305Z 23009KT 19/12 A2988 RMK A01 T01930124  RH  067%=      5-min Rain = 0
KDVS 151310Z 23009KT 20/13 A2988 RMK A01 T01960125  RH  066%=      5-min Rain = 0
KDVS 151315Z 23010KT 20/13 A2988 RMK A01 T01990125  RH  065%=      5-min Rain = 0
KDVS 151320Z 23008KT 20/13 A2988 RMK A01 T02020125  RH  063%=      5-min Rain = 0
KDVS 151325Z 22008KT 21/13 A2988 RMK A01 T02070125  RH  062%=      5-min Rain = 0
KDVS 151330Z 22010KT 21/13 A2989 RMK A01 T02110125  RH  060%=      5-min Rain = 0
KDVS 151335Z 22011KT 21/12 A2989 RMK A01 T02120122  RH  059%=      5-min Rain = 0
KDVS 151340Z 22010KT 22/12 A2989 RMK A01 T02150121  RH  057%=      5-min Rain = 0
KDVS 151345Z 22011KT 22/12 A2989 RMK A01 T02210121  RH  055%=      5-min Rain = 0
KDVS 151350Z 22010KT 22/12 A2989 RMK A01 T02240118  RH  053%=      5-min Rain = 0
KDVS 151355Z 23008KT 23/11 A2989 RMK A01 T02270114  RH  051%=      5-min Rain = 0
KDVS 151400Z 23010KT 23/11 A299 RMK A01 T02310111  RH  048%=      5-min Rain = 0
KDVS 151405Z 23011KT 24/11 A299 RMK A01 T02350105  RH  045%=      5-min Rain = 0
KDVS 151410Z 24008KT 24/10 A299 RMK A01 T02390102  RH  043%=      5-min Rain = 0
KDVS 151415Z 25007KT 24/10 A2989 RMK A01 T02440096  RH  040%=      5-min Rain = 0
KDVS 151420Z 25006KT 25/09 A299 RMK A01 T02490090  RH  038%=      5-min Rain = 0
KDVS 151425Z 25009KT 25/08 A299 RMK A01 T02530082  RH  035%=      5-min Rain = 0
KDVS 151430Z 25008KT 26/08 A299 RMK A01 T02580077  RH  032%=      5-min Rain = 0
KDVS 151435Z 25008KT 26/08 A299 RMK A01 T02630076  RH  031%=      5-min Rain = 0
KDVS 151440Z 24008KT 27/07 A299 RMK A01 T02680071  RH  029%=      5-min Rain = 0
KDVS 151445Z 23006KT 27/08 A299 RMK A01 T02730079  RH  030%=      5-min Rain = 0
KDVS 151450Z 25006KT 28/07 A299 RMK A01 T02770070  RH  028%=      5-min Rain = 0
KDVS 151455Z 26008KT 29/04 A299 RMK A01 T02860044  RH  022%=      5-min Rain = 0
KDVS 151500Z 30011KT 29/01 A299 RMK A01 T02910008  RH  016%=      5-min Rain = 0
KDVS 151505Z 30011KT 29/01 A299 RMK A01 T02940006  RH  016%=      5-min Rain = 0
KDVS 151510Z 28010KT 30/01 A299 RMK A01 T02970010  RH  016%=      5-min Rain = 0
KDVS 151515Z 29012G17KT 30/00 A299 RMK A01 T02980004  RH  015%=      5-min Rain = 0
KDVS 151520Z 30009KT 30/01 A299 RMK A01 T03000006  RH  015%=      5-min Rain = 0
KDVS 151525Z 31009KT 30/01 A2989 RMK A01 T03030008  RH  015%=      5-min Rain = 0
KDVS 151530Z 33009KT 30/01 A2989 RMK A01 T03040009  RH  015%=      5-min Rain = 0
KDVS 151535Z 33009KT 31/01 A2989 RMK A01 T03070010  RH  015%=      5-min Rain = 0
KDVS 151540Z 32007KT 31/00 A2989 RMK A01 T031200-0  RH  014%=      5-min Rain = 0
KDVS 151545Z 32007KT 32/M01 A2989 RMK A01 T03181008  RH  012%=      5-min Rain = 0
KDVS 151550Z 30009KT 32/M01 A2989 RMK A01 T03191013  RH  012%=      5-min Rain = 0
KDVS 151555Z 28009KT 32/M01 A2989 RMK A01 T03211013  RH  012%=      5-min Rain = 0
KDVS 151600Z 29008G13KT 32/M02 A2989 RMK A01 T03231018  RH  011%=      5-min Rain = 0
KDVS 151605Z 27006KT 33/M02 A2989 RMK A01 T03261016  RH  011%=      5-min Rain = 0
KDVS 151610Z 31007G12KT 33/M02 A2989 RMK A01 T03281015  RH  011%=      5-min Rain = 0
KDVS 151615Z 31008KT 33/M02 A299 RMK A01 T03281020  RH  011%=      5-min Rain = 0
KDVS 151620Z 32008G14KT 33/M03 A299 RMK A01 T03281029  RH  010%=      5-min Rain = 0
KDVS 151625Z 30007KT 33/M02 A299 RMK A01 T03291018  RH  011%=      5-min Rain = 0
KDVS 151630Z 26007KT 33/M02 A299 RMK A01 T03301019  RH  011%=      5-min Rain = 0
KDVS 151635Z 27008G13KT 33/M02 A299 RMK A01 T03331017  RH  011%=      5-min Rain = 0
KDVS 151640Z 27009KT 33/M02 A299 RMK A01 T03321021  RH  010%=      5-min Rain = 0
KDVS 151645Z 26008KT 33/M02 A299 RMK A01 T03331019  RH  010%=      5-min Rain = 0
KDVS 151650Z 26009KT 33/M02 A299 RMK A01 T03331020  RH  010%=      5-min Rain = 0
KDVS 151655Z 28008KT 34/M02 A299 RMK A01 T03361017  RH  010%=      5-min Rain = 0
KDVS 151700Z 28009G14KT 34/M02 A299 RMK A01 T03361020  RH  010%=      5-min Rain = 0
KDVS 151705Z 27008KT 34/M02 A299 RMK A01 T03351017  RH  011%=      5-min Rain = 0
KDVS 151710Z 30008KT 34/M02 A299 RMK A01 T03371023  RH  010%=      5-min Rain = 0
KDVS 151715Z 30007G12KT 34/M02 A299 RMK A01 T03361024  RH  010%=      5-min Rain = 0
KDVS 151720Z 28008KT 34/M02 A299 RMK A01 T03371023  RH  010%=      5-min Rain = 0
KDVS 151725Z 28007G12KT 34/M02 A299 RMK A01 T03351024  RH  010%=      5-min Rain = 0
KDVS 151730Z 29010KT 33/M02 A299 RMK A01 T03321024  RH  010%=      5-min Rain = 0
KDVS 151735Z 27010KT 34/M03 A299 RMK A01 T03401026  RH  010%=      5-min Rain = 0
KDVS 151740Z 27011KT 34/M03 A299 RMK A01 T03421026  RH  009%=      5-min Rain = 0
KDVS 151745Z 29011KT 34/M03 A299 RMK A01 T03431027  RH  009%=      5-min Rain = 0
KDVS 151750Z 27011G17KT 34/M04 A299 RMK A01 T03421036  RH  009%=      5-min Rain = 0
KDVS 151755Z 27009KT 34/M04 A299 RMK A01 T03421035  RH  009%=      5-min Rain = 0
KDVS 151800Z 28009G15KT 34/M03 A299 RMK A01 T03431030  RH  009%=      5-min Rain = 0
KDVS 151805Z 27009KT 34/M03 A299 RMK A01 T03441033  RH  009%=      5-min Rain = 0
KDVS 151810Z 31010G15KT 35/M03 A299 RMK A01 T03471032  RH  009%=      5-min Rain = 0
KDVS 151815Z 31011KT 35/M04 A299 RMK A01 T03481040  RH  008%=      5-min Rain = 0
KDVS 151820Z 30007G13KT 35/M05 A299 RMK A01 T03451048  RH  008%=      5-min Rain = 0
KDVS 151825Z 31010G15KT 34/M05 A299 RMK A01 T03431046  RH  008%=      5-min Rain = 0
KDVS 151830Z 32009KT 35/M05 A299 RMK A01 T03451049  RH  008%=      5-min Rain = 0
KDVS 151835Z 32007KT 35/M05 A299 RMK A01 T03461045  RH  008%=      5-min Rain = 0
KDVS 151840Z 27009KT 35/M04 A2989 RMK A01 T03511035  RH  008%=      5-min Rain = 0
KDVS 151845Z 26007G14KT 35/M04 A2989 RMK A01 T03451036  RH  009%=      5-min Rain = 0
KDVS 151850Z 29005G14KT 35/M03 A2989 RMK A01 T03461030  RH  009%=      5-min Rain = 0
KDVS 151855Z 27010G16KT 35/M04 A2989 RMK A01 T03481035  RH  009%=      5-min Rain = 0
KDVS 151900Z 25008G15KT 35/M03 A2989 RMK A01 T03471033  RH  009%=      5-min Rain = 0
KDVS 151905Z 22005KT 35/M04 A2989 RMK A01 T03471035  RH  009%=      5-min Rain = 0
KDVS 151910Z 31004G11KT 35/M03 A2989 RMK A01 T03501032  RH  009%=      5-min Rain = 0
KDVS 151915Z 29005G10KT 35/M03 A2988 RMK A01 T03531029  RH  009%=      5-min Rain = 0
KDVS 151920Z 32007G14KT 35/M03 A2988 RMK A01 T03531032  RH  008%=      5-min Rain = 0
KDVS 151925Z 28006G12KT 35/M04 A2988 RMK A01 T03491035  RH  009%=      5-min Rain = 0
KDVS 151930Z 31003G8KT 35/M04 A2988 RMK A01 T03471037  RH  008%=      5-min Rain = 0
KDVS 151935Z 31005G17KT 35/M03 A2987 RMK A01 T03491032  RH  009%=      5-min Rain = 0
KDVS 151940Z 26012KT 36/M03 A2987 RMK A01 T03591034  RH  008%=      5-min Rain = 0
KDVS 151945Z 27011KT 36/M04 A2987 RMK A01 T03581040  RH  008%=      5-min Rain = 0
KDVS 151950Z 28010KT 35/M04 A2987 RMK A01 T03531039  RH  008%=      5-min Rain = 0
KDVS 151955Z 28008G13KT 36/M04 A2987 RMK A01 T03561039  RH  008%=      5-min Rain = 0
KDVS 152000Z 23005KT 35/M04 A2987 RMK A01 T03541038  RH  008%=      5-min Rain = 0
KDVS 152005Z 24011KT 36/M04 A2987 RMK A01 T03581035  RH  008%=      5-min Rain = 0
KDVS 152010Z 23009G15KT 36/M03 A2987 RMK A01 T03591032  RH  008%=      5-min Rain = 0
KDVS 152015Z 24012KT 36/M04 A2987 RMK A01 T03561036  RH  008%=      5-min Rain = 0
KDVS 152020Z 23007KT 35/M04 A2986 RMK A01 T03501036  RH  008%=      5-min Rain = 0
KDVS 152025Z 23004KT 35/M03 A2986 RMK A01 T03521034  RH  008%=      5-min Rain = 0
KDVS 152030Z 25005G10KT 36/M03 A2986 RMK A01 T03561034  RH  008%=      5-min Rain = 0
KDVS 152035Z 25006G11KT 36/M03 A2986 RMK A01 T03591031  RH  008%=      5-min Rain = 0
KDVS 152040Z 22009G20KT 36/M03 A2986 RMK A01 T03611030  RH  008%=      5-min Rain = 0
KDVS 152045Z 22010G22KT 36/M03 A2986 RMK A01 T03571029  RH  009%=      5-min Rain = 0
KDVS 152050Z 21009G16KT 36/M03 A2986 RMK A01 T03561026  RH  009%=      5-min Rain = 0
KDVS 152055Z 21011KT 36/M02 A2985 RMK A01 T03591023  RH  009%=      5-min Rain = 0
KDVS 152100Z 22010KT 36/M02 A2985 RMK A01 T03581024  RH  009%=      5-min Rain = 0
KDVS 152105Z 26012KT 36/M03 A2985 RMK A01 T03591030  RH  008%=      5-min Rain = 0
KDVS 152110Z 25010KT 36/M03 A2985 RMK A01 T03581029  RH  008%=      5-min Rain = 0
KDVS 152115Z 27008KT 36/M03 A2985 RMK A01 T03561030  RH  008%=      5-min Rain = 0
KDVS 152120Z 27008G13KT 36/M03 A2985 RMK A01 T03561028  RH  009%=      5-min Rain = 0
KDVS 152125Z 26007G12KT 36/M03 A2985 RMK A01 T03581030  RH  008%=      5-min Rain = 0
KDVS 152130Z 25014G19KT 36/M03 A2984 RMK A01 T03591032  RH  008%=      5-min Rain = 0
KDVS 152135Z 25014G19KT 36/M03 A2984 RMK A01 T03571034  RH  008%=      5-min Rain = 0
KDVS 152140Z 22014KT 36/M03 A2984 RMK A01 T03551031  RH  008%=      5-min Rain = 0
KDVS 152145Z 21011G17KT 35/M03 A2984 RMK A01 T03541029  RH  009%=      5-min Rain = 0
KDVS 152150Z 22011G21KT 35/M03 A2984 RMK A01 T03541031  RH  009%=      5-min Rain = 0
KDVS 152155Z 23012KT 35/M03 A2984 RMK A01 T03541034  RH  008%=      5-min Rain = 0
KDVS 152200Z 24008G16KT 35/M03 A2984 RMK A01 T03521033  RH  008%=      5-min Rain = 0
KDVS 152205Z 24008G14KT 35/M03 A2983 RMK A01 T03521033  RH  008%=      5-min Rain = 0
KDVS 152210Z 23010G16KT 35/M03 A2983 RMK A01 T03531032  RH  009%=      5-min Rain = 0
KDVS 152215Z 21009KT 35/M03 A2983 RMK A01 T03521031  RH  009%=      5-min Rain = 0
KDVS 152220Z 21008KT 35/M03 A2983 RMK A01 T03531029  RH  009%=      5-min Rain = 0
KDVS 152225Z 25005KT 35/M03 A2982 RMK A01 T03531031  RH  009%=      5-min Rain = 0
KDVS 152230Z 24011G16KT 35/M03 A2982 RMK A01 T03521030  RH  009%=      5-min Rain = 0
KDVS 152235Z 22008KT 35/M03 A2982 RMK A01 T03511028  RH  009%=      5-min Rain = 0
KDVS 152240Z 24012G17KT 36/M03 A2982 RMK A01 T03551025  RH  009%=      5-min Rain = 0
KDVS 152245Z 21006G13KT 36/M02 A2982 RMK A01 T03581021  RH  009%=      5-min Rain = 0
KDVS 152250Z 24010G19KT 36/M02 A2981 RMK A01 T03561024  RH  009%=      5-min Rain = 0
KDVS 152255Z 26013KT 35/M03 A2981 RMK A01 T03451025  RH  009%=      5-min Rain = 0
KDVS 152300Z 26014G19KT 35/M03 A2981 RMK A01 T03481025  RH  009%=      5-min Rain = 0
KDVS 152305Z 25011KT 35/M02 A298 RMK A01 T03511023  RH  009%=      5-min Rain = 0
KDVS 152310Z 24007KT 35/M02 A298 RMK A01 T03511021  RH  009%=      5-min Rain = 0
KDVS 152315Z 23008G13KT 35/M02 A298 RMK A01 T03501021  RH  009%=      5-min Rain = 0
KDVS 152320Z 22016G24KT 35/M02 A298 RMK A01 T03511021  RH  009%=      5-min Rain = 0
KDVS 152325Z 24011G19KT 35/M02 A298 RMK A01 T03501020  RH  009%=      5-min Rain = 0
KDVS 152330Z 24015G24KT 35/M03 A2979 RMK A01 T03501026  RH  009%=      5-min Rain = 0
KDVS 152335Z 23019G26KT 35/M03 A2979 RMK A01 T03501031  RH  009%=      5-min Rain = 0
KDVS 152340Z 24018G26KT 35/M04 A2979 RMK A01 T03481036  RH  009%=      5-min Rain = 0
KDVS 152345Z 23018G23KT 35/M04 A2979 RMK A01 T03461038  RH  008%=      5-min Rain = 0
KDVS 152350Z 25018G24KT 35/M04 A2979 RMK A01 T03461040  RH  008%=      5-min Rain = 0
KDVS 152355Z 25016G23KT 35/M04 A2979 RMK A01 T03451040  RH  008%=      5-min Rain = 0
KDVS 160000Z 26019G25KT 34/M05 A2979 RMK A01 T03441045  RH  008%=      5-min Rain = 0
KDVS 160005Z 26018KT 34/M05 A2979 RMK A01 T03421047  RH  008%=      5-min Rain = 0
KDVS 160010Z 25018G25KT 34/M05 A2979 RMK A01 T03421049  RH  008%=      5-min Rain = 0
KDVS 160015Z 25019G25KT 34/M06 A2979 RMK A01 T03411058  RH  007%=      5-min Rain = 0
KDVS 160020Z 25017G22KT 34/M06 A298 RMK A01 T03401058  RH  007%=      5-min Rain = 0
KDVS 160025Z 25017G23KT 34/M07 A298 RMK A01 T03391065  RH  007%=      5-min Rain = 0
KDVS 160030Z 25018G24KT 34/M08 A298 RMK A01 T03371077  RH  007%=      5-min Rain = 0
KDVS 160035Z 26018G23KT 34/M08 A298 RMK A01 T03361080  RH  006%=      5-min Rain = 0
KDVS 160040Z 26019G24KT 33/M09 A2981 RMK A01 T03341086  RH  006%=      5-min Rain = 0
KDVS 160045Z 26018G23KT 33/M09 A2981 RMK A01 T03321089  RH  006%=      5-min Rain = 0
KDVS 160050Z 25017G22KT 33/M09 A2981 RMK A01 T03301088  RH  006%=      5-min Rain = 0
KDVS 160055Z 25016KT 33/M09 A2981 RMK A01 T03291089  RH  006%=      5-min Rain = 0
KDVS 160100Z 25016G21KT 33/M09 A2982 RMK A01 T03281086  RH  006%=      5-min Rain = 0
KDVS 160105Z 26016KT 33/M08 A2982 RMK A01 T03261082  RH  007%=      5-min Rain = 0
KDVS 160110Z 27015KT 32/M08 A2982 RMK A01 T03241084  RH  007%=      5-min Rain = 0
KDVS 160115Z 27013KT 32/M09 A2983 RMK A01 T03241085  RH  007%=      5-min Rain = 0
KDVS 160120Z 26013KT 32/M08 A2983 RMK A01 T03221083  RH  007%=      5-min Rain = 0
KDVS 160125Z 27010KT 32/M08 A2983 RMK A01 T03191078  RH  007%=      5-min Rain = 0
KDVS 160130Z 26011KT 32/M07 A2983 RMK A01 T03151073  RH  008%=      5-min Rain = 0
KDVS 160135Z 26010KT 31/M07 A2984 RMK A01 T03121072  RH  008%=      5-min Rain = 0
KDVS 160140Z 26009KT 31/M07 A2984 RMK A01 T03091072  RH  008%=      5-min Rain = 0
KDVS 160145Z 26008KT 31/M07 A2984 RMK A01 T03051070  RH  008%=      5-min Rain = 0
KDVS 160150Z 26007KT 30/M07 A2984 RMK A01 T03001068  RH  009%=      5-min Rain = 0
KDVS 160155Z 26007KT 29/M06 A2984 RMK A01 T02941063  RH  009%=      5-min Rain = 0
KDVS 160200Z 26007KT 29/M06 A2984 RMK A01 T02871059  RH  010%=      5-min Rain = 0
KDVS 160205Z 26007KT 28/M06 A2984 RMK A01 T02801056  RH  011%=      5-min Rain = 0
KDVS 160210Z 26007KT 28/M05 A2984 RMK A01 T02751054  RH  011%=      5-min Rain = 0
KDVS 160215Z 26007KT 27/M05 A2984 RMK A01 T02701052  RH  012%=      5-min Rain = 0
KDVS 160220Z 26007KT 27/M05 A2984 RMK A01 T02661052  RH  012%=      5-min Rain = 0
KDVS 160225Z 26007KT 26/M05 A2984 RMK A01 T02641051  RH  012%=      5-min Rain = 0
KDVS 160230Z 26007KT 26/M05 A2984 RMK A01 T02621050  RH  012%=      5-min Rain = 0
KDVS 160235Z 25007KT 26/M05 A2984 RMK A01 T02601051  RH  013%=      5-min Rain = 0
KDVS 160240Z 25007KT 26/M05 A2984 RMK A01 T02591050  RH  013%=      5-min Rain = 0
KDVS 160245Z 24006KT 26/M05 A2984 RMK A01 T02571051  RH  013%=      5-min Rain = 0
KDVS 160250Z 23004KT 25/M05 A2984 RMK A01 T02531050  RH  013%=      5-min Rain = 0
KDVS 160255Z 24003KT 25/M05 A2984 RMK A01 T02491050  RH  013%=      5-min Rain = 0
KDVS 160300Z 24002KT 24/M05 A2984 RMK A01 T02411045  RH  015%=      5-min Rain = 0
KDVS 160305Z 25002KT 23/M05 A2984 RMK A01 T02341045  RH  015%=      5-min Rain = 0
KDVS 160310Z 00006G13KT 23/M04 A2985 RMK A01 T02271035  RH  017%=      5-min Rain = 0
KDVS 160315Z 00008KT 21/M01 A2985 RMK A01 T02141011  RH  023%=      5-min Rain = 0
KDVS 160320Z 03009KT 22/04 A2985 RMK A01 T02240038  RH  030%=      5-min Rain = 0
KDVS 160325Z 05008KT 23/07 A2985 RMK A01 T02270070  RH  037%=      5-min Rain = 0
KDVS 160330Z 05007KT 23/09 A2985 RMK A01 T02270085  RH  041%=      5-min Rain = 0
KDVS 160335Z 06006KT 22/09 A2986 RMK A01 T02230089  RH  044%=      5-min Rain = 0
KDVS 160340Z 07007KT 22/09 A2986 RMK A01 T02170091  RH  046%=      5-min Rain = 0
KDVS 160345Z 06006KT 21/09 A2986 RMK A01 T02120090  RH  047%=      5-min Rain = 0
KDVS 160350Z 07008KT 21/09 A2986 RMK A01 T02080090  RH  048%=      5-min Rain = 0
KDVS 160355Z 08005KT 20/09 A2987 RMK A01 T02040088  RH  049%=      5-min Rain = 0
KDVS 160400Z 08003KT 20/09 A2987 RMK A01 T01980088  RH  050%=      5-min Rain = 0
KDVS 160405Z 08006KT 20/09 A2987 RMK A01 T01980089  RH  051%=      5-min Rain = 0
KDVS 160410Z 09002KT 20/09 A2987 RMK A01 T01970089  RH  051%=      5-min Rain = 0
KDVS 160415Z 06003KT 20/09 A2988 RMK A01 T01980090  RH  051%=      5-min Rain = 0
KDVS 160420Z 06004KT 20/09 A2988 RMK A01 T01980089  RH  051%=      5-min Rain = 0
KDVS 160425Z 05005KT 20/09 A2988 RMK A01 T01960089  RH  052%=      5-min Rain = 0
KDVS 160430Z 05006KT 19/09 A2988 RMK A01 T01920091  RH  053%=      5-min Rain = 0
KDVS 160435Z 06006KT 19/09 A2989 RMK A01 T01930091  RH  053%=      5-min Rain = 0
KDVS 160440Z 06006KT 19/09 A2989 RMK A01 T01910090  RH  054%=      5-min Rain = 0
KDVS 160445Z 04007KT 19/09 A299 RMK A01 T01870090  RH  055%=      5-min Rain = 0
KDVS 160450Z 04008KT 18/09 A299 RMK A01 T01800090  RH  057%=      5-min Rain = 0
KDVS 160455Z 04008KT 18/09 A299 RMK A01 T01810091  RH  057%=      5-min Rain = 0

Page generated in 0.0152 seconds.